Time;durP1;ratioP1;P1;durP2;ratioP2;P2;SDS_P1;SDS_P2;PMS_P1;PMS_P2;Temp;Humidity;BMP_temperature;BMP_pressure;BME280_temperature;BME280_humidity;BME280_pressure;Samples;Min_cycle;Max_cycle;Signal;HPM_P1;HPM_P2
2023/09/05 03:48:57;;;;;;;1.85;1.40;;;;;;;;;;6245869;23;20148;-95
2023/09/05 08:09:27;;;;;;;2.25;2.15;;;;;;;;;;6007032;23;20191;-95
2023/09/05 08:12:07;;;;;;;2.47;2.28;;;;;;;;;;6124832;23;20171;-96
2023/09/05 09:33:43;;;;;;;1.63;1.52;;;;;;;;;;6204172;22;20229;-93
2023/09/05 09:47:04;;;;;;;2.10;1.92;;;;;;;;;;6164426;23;20179;-95
2023/09/05 09:49:36;;;;;;;1.90;1.80;;;;;;;;;;6185557;23;20164;-92
2023/09/05 10:10:15;;;;;;;1.80;1.70;;;;;;;;;;6153031;23;20513;-92
2023/09/05 10:12:44;;;;;;;3.88;1.98;;;;;;;;;;6155886;23;20274;-92
2023/09/05 10:15:13;;;;;;;2.60;2.17;;;;;;;;;;6155974;23;20194;-91
2023/09/05 10:17:42;;;;;;;3.72;1.90;;;;;;;;;;6156077;23;20180;-92
2023/09/05 10:20:14;;;;;;;2.75;2.00;;;;;;;;;;6156043;23;20202;-92
2023/09/05 10:30:57;;;;;;;2.15;1.95;;;;;;;;;;6155112;23;20190;-96
2023/09/05 10:33:38;;;;;;;1.90;1.80;;;;;;;;;;6185518;23;20155;-96
2023/09/05 10:36:07;;;;;;;1.60;1.50;;;;;;;;;;6140840;23;20182;-96
2023/09/05 10:38:46;;;;;;;2.08;1.90;;;;;;;;;;6155948;23;20175;-96
2023/09/05 10:41:52;;;;;;;1.70;1.60;;;;;;;;;;6156310;23;20154;-96
2023/09/05 16:45:49;;;;;;;2.28;1.10;;;;;;;;;;6212752;23;20151;-93
2023/09/05 16:48:17;;;;;;;1.40;1.30;;;;;;;;;;6213438;23;20154;-94
2023/09/05 16:50:44;;;;;;;1.13;1.02;;;;;;;;;;6213578;23;20147;-93
2023/09/05 16:53:12;;;;;;;1.00;1.00;;;;;;;;;;6213443;23;20147;-93
2023/09/05 16:55:40;;;;;;;0.90;0.90;;;;;;;;;;6213643;23;20186;-93
2023/09/05 16:58:09;;;;;;;1.05;1.00;;;;;;;;;;6213529;23;20161;-92
2023/09/05 17:00:38;;;;;;;1.27;1.08;;;;;;;;;;6213924;23;20158;-95
2023/09/05 17:03:08;;;;;;;1.77;1.00;;;;;;;;;;6213679;23;20159;-94
2023/09/05 17:05:37;;;;;;;1.55;1.08;;;;;;;;;;6213664;23;20154;-94
2023/09/05 17:08:05;;;;;;;0.95;0.95;;;;;;;;;;6213416;23;20361;-94
2023/09/05 17:10:34;;;;;;;1.15;1.15;;;;;;;;;;6213316;23;20203;-94
2023/09/05 17:13:01;;;;;;;1.02;1.00;;;;;;;;;;6214057;23;20146;-94
2023/09/05 17:15:29;;;;;;;1.00;1.00;;;;;;;;;;6213990;23;20166;-93
2023/09/05 17:17:57;;;;;;;1.45;1.10;;;;;;;;;;6213934;23;20147;-94
2023/09/05 17:20:26;;;;;;;1.00;1.00;;;;;;;;;;6215471;23;20150;-94
2023/09/05 17:22:54;;;;;;;0.85;0.85;;;;;;;;;;6215319;23;20207;-93
2023/09/05 17:25:21;;;;;;;1.00;1.00;;;;;;;;;;6215303;23;20150;-93
2023/09/05 17:27:49;;;;;;;1.00;1.00;;;;;;;;;;6215300;23;20186;-93
2023/09/05 17:30:16;;;;;;;1.10;1.10;;;;;;;;;;6215236;23;20154;-93
2023/09/05 17:32:44;;;;;;;1.25;1.10;;;;;;;;;;6215377;23;20151;-93
2023/09/05 17:35:12;;;;;;;2.40;1.30;;;;;;;;;;6215125;23;20178;-93
2023/09/05 17:37:41;;;;;;;1.77;1.00;;;;;;;;;;6215299;23;20157;-93
2023/09/05 17:40:10;;;;;;;1.33;1.23;;;;;;;;;;6215313;23;20151;-92
2023/09/05 17:42:38;;;;;;;0.98;0.90;;;;;;;;;;6215197;23;20151;-93
2023/09/05 17:45:07;;;;;;;1.02;1.02;;;;;;;;;;6215144;23;20165;-92
2023/09/05 17:47:35;;;;;;;0.90;0.90;;;;;;;;;;6215199;23;20153;-94
2023/09/05 17:50:03;;;;;;;1.27;1.25;;;;;;;;;;6214947;23;20150;-93
2023/09/05 17:52:32;;;;;;;1.38;1.27;;;;;;;;;;6215027;23;20147;-94
2023/09/05 17:55:01;;;;;;;2.28;2.10;;;;;;;;;;6214898;23;20163;-93
2023/09/05 17:57:29;;;;;;;2.20;1.90;;;;;;;;;;6215193;23;20146;-94
2023/09/05 17:59:57;;;;;;;3.10;2.83;;;;;;;;;;6214887;23;20162;-94
2023/09/05 18:02:24;;;;;;;1.25;1.17;;;;;;;;;;6214983;23;20147;-92
2023/09/05 18:04:52;;;;;;;1.77;1.67;;;;;;;;;;6214881;23;20163;-93
2023/09/05 18:07:19;;;;;;;1.85;1.75;;;;;;;;;;6215150;23;20162;-92
2023/09/05 18:09:48;;;;;;;1.65;1.55;;;;;;;;;;6214584;23;20157;-93
2023/09/05 18:12:17;;;;;;;1.40;1.30;;;;;;;;;;6215007;23;20147;-92
2023/09/05 18:14:44;;;;;;;1.33;1.23;;;;;;;;;;6214872;23;20154;-92
2023/09/05 18:17:12;;;;;;;0.98;0.98;;;;;;;;;;6214877;23;20165;-92
2023/09/05 18:19:43;;;;;;;1.60;1.40;;;;;;;;;;6214484;23;20170;-94
2023/09/05 18:22:11;;;;;;;1.45;1.35;;;;;;;;;;6214757;23;20153;-93
2023/09/05 18:24:40;;;;;;;1.88;1.38;;;;;;;;;;6214657;23;20146;-93
2023/09/05 18:27:10;;;;;;;1.05;1.05;;;;;;;;;;6214891;23;20147;-93
2023/09/05 18:29:39;;;;;;;2.33;1.30;;;;;;;;;;6214429;23;20170;-93
2023/09/05 18:32:06;;;;;;;1.58;1.30;;;;;;;;;;6214795;23;20210;-93
2023/09/05 18:34:40;;;;;;;1.30;1.30;;;;;;;;;;6214757;23;20142;-92
2023/09/05 18:37:09;;;;;;;2.70;1.20;;;;;;;;;;6214847;23;20189;-92
2023/09/05 18:39:37;;;;;;;1.40;1.30;;;;;;;;;;6214468;23;20151;-92
2023/09/05 18:42:06;;;;;;;1.42;1.33;;;;;;;;;;6214712;23;20177;-92
2023/09/05 18:44:35;;;;;;;1.42;1.42;;;;;;;;;;6214557;23;20151;-93
2023/09/05 18:47:06;;;;;;;1.67;1.13;;;;;;;;;;6214631;23;20276;-92
2023/09/05 18:49:34;;;;;;;1.70;1.60;;;;;;;;;;6214356;23;20161;-92
2023/09/05 18:52:02;;;;;;;1.20;1.17;;;;;;;;;;6214383;23;20159;-93
2023/09/05 18:54:30;;;;;;;1.25;1.15;;;;;;;;;;6214414;23;20158;-93
2023/09/05 18:56:58;;;;;;;1.52;1.42;;;;;;;;;;6214412;23;20163;-93
2023/09/05 18:59:26;;;;;;;1.60;1.50;;;;;;;;;;6214262;23;20143;-93
2023/09/05 19:01:54;;;;;;;2.72;1.23;;;;;;;;;;6214378;23;20162;-91
2023/09/05 19:04:23;;;;;;;1.10;1.05;;;;;;;;;;6214537;23;20154;-93
2023/09/05 19:06:51;;;;;;;1.40;1.30;;;;;;;;;;6214458;23;20155;-93
2023/09/05 19:09:19;;;;;;;1.60;1.50;;;;;;;;;;6213995;23;20157;-93
2023/09/05 19:11:47;;;;;;;2.40;1.33;;;;;;;;;;6214444;23;20147;-92
2023/09/05 19:14:15;;;;;;;1.50;1.40;;;;;;;;;;6214526;23;20147;-93
2023/09/05 19:16:42;;;;;;;0.95;0.95;;;;;;;;;;6214211;23;20162;-93
2023/09/05 19:19:11;;;;;;;1.35;1.25;;;;;;;;;;6214038;23;20195;-92
2023/09/05 19:21:40;;;;;;;1.30;1.20;;;;;;;;;;6214397;23;20151;-93
2023/09/05 19:24:09;;;;;;;1.73;1.40;;;;;;;;;;6214196;23;20151;-93
2023/09/05 19:26:36;;;;;;;2.28;1.70;;;;;;;;;;6214343;23;20207;-93
2023/09/05 19:29:04;;;;;;;3.60;1.95;;;;;;;;;;6213885;23;20158;-91
2023/09/05 19:31:31;;;;;;;2.78;2.20;;;;;;;;;;6214189;23;20159;-91
2023/09/05 19:33:59;;;;;;;5.10;4.65;;;;;;;;;;6214320;23;20161;-94
2023/09/05 19:36:27;;;;;;;7.43;6.60;;;;;;;;;;6214117;23;20169;-93
2023/09/05 19:38:56;;;;;;;7.03;6.20;;;;;;;;;;6213930;23;20173;-92
2023/09/05 19:41:24;;;;;;;3.95;3.65;;;;;;;;;;6213957;23;20158;-93
2023/09/05 19:43:51;;;;;;;3.60;2.78;;;;;;;;;;6213956;23;20159;-92
2023/09/05 19:46:19;;;;;;;2.65;2.45;;;;;;;;;;6214121;23;20151;-92
2023/09/05 19:48:47;;;;;;;3.25;1.70;;;;;;;;;;6213832;23;20173;-92
2023/09/05 19:51:15;;;;;;;1.83;1.65;;;;;;;;;;6214188;23;20146;-93
2023/09/05 19:53:43;;;;;;;1.63;1.50;;;;;;;;;;6213865;23;20151;-92
2023/09/05 19:56:13;;;;;;;1.50;1.40;;;;;;;;;;6213901;23;20151;-93
2023/09/05 19:58:40;;;;;;;1.50;1.30;;;;;;;;;;6213859;23;20149;-92
2023/09/05 20:01:09;;;;;;;1.73;1.52;;;;;;;;;;6214065;23;20150;-93
2023/09/05 20:03:36;;;;;;;1.63;1.52;;;;;;;;;;6213973;23;20157;-92
2023/09/05 20:06:04;;;;;;;2.22;1.70;;;;;;;;;;6214072;23;20147;-92
2023/09/05 20:08:32;;;;;;;1.77;1.67;;;;;;;;;;6213646;23;20165;-94
2023/09/05 20:11:00;;;;;;;2.03;1.92;;;;;;;;;;6213980;23;20150;-92
2023/09/05 20:13:28;;;;;;;1.73;1.63;;;;;;;;;;6213995;23;20146;-93
2023/09/05 20:15:56;;;;;;;1.10;1.10;;;;;;;;;;6214013;23;20151;-93
2023/09/05 20:18:25;;;;;;;1.25;1.17;;;;;;;;;;6213640;23;20158;-93
2023/09/05 20:20:55;;;;;;;1.58;1.48;;;;;;;;;;6213968;23;20154;-95
2023/09/05 20:23:24;;;;;;;1.48;1.38;;;;;;;;;;6213821;23;20146;-94
2023/09/05 20:25:51;;;;;;;1.33;1.20;;;;;;;;;;6214087;23;20153;-92
2023/09/05 20:28:19;;;;;;;1.67;1.55;;;;;;;;;;6213678;23;20147;-93
2023/09/05 20:30:53;;;;;;;1.30;1.20;;;;;;;;;;6213845;23;20151;-92
2023/09/05 20:33:22;;;;;;;1.67;1.52;;;;;;;;;;6213947;23;20145;-93
2023/09/05 20:35:49;;;;;;;2.17;1.30;;;;;;;;;;6213980;23;20151;-95
2023/09/05 20:38:19;;;;;;;1.40;1.30;;;;;;;;;;6213673;23;20173;-94
2023/09/05 20:40:47;;;;;;;1.73;1.40;;;;;;;;;;6213806;23;20208;-93
2023/09/05 20:43:16;;;;;;;5.28;2.15;;;;;;;;;;6213785;23;20151;-93
2023/09/05 20:45:44;;;;;;;2.63;2.22;;;;;;;;;;6213849;23;20186;-93
2023/09/05 20:48:13;;;;;;;1.92;1.83;;;;;;;;;;6213642;23;20147;-94
2023/09/05 20:50:41;;;;;;;2.65;1.98;;;;;;;;;;6213945;23;20150;-94
2023/09/05 20:53:10;;;;;;;2.28;1.60;;;;;;;;;;6214884;23;20206;-93
2023/09/05 20:55:37;;;;;;;2.25;1.55;;;;;;;;;;6215817;23;20154;-94
2023/09/05 20:58:07;;;;;;;1.70;1.60;;;;;;;;;;6215377;23;20162;-93
2023/09/05 21:00:35;;;;;;;1.70;1.30;;;;;;;;;;6215430;23;20151;-93
2023/09/05 21:03:02;;;;;;;1.38;1.27;;;;;;;;;;6215571;23;20162;-92
2023/09/05 21:05:33;;;;;;;1.30;1.30;;;;;;;;;;6215791;23;20150;-94
2023/09/05 21:08:01;;;;;;;1.50;1.40;;;;;;;;;;6215486;23;20151;-93
2023/09/05 21:10:29;;;;;;;1.52;1.42;;;;;;;;;;6215185;23;20281;-94
2023/09/05 21:12:57;;;;;;;1.50;1.40;;;;;;;;;;6215596;23;20151;-93
2023/09/05 21:15:25;;;;;;;2.35;1.60;;;;;;;;;;6215507;23;20155;-93
2023/09/05 21:17:53;;;;;;;1.33;1.23;;;;;;;;;;6215326;23;20162;-93
2023/09/05 21:20:21;;;;;;;1.30;1.20;;;;;;;;;;6215314;23;20147;-92
2023/09/05 21:22:50;;;;;;;1.52;1.42;;;;;;;;;;6215407;23;20198;-93
2023/09/05 21:25:17;;;;;;;1.15;1.13;;;;;;;;;;6215316;23;20146;-93
2023/09/05 21:27:45;;;;;;;1.60;1.42;;;;;;;;;;6215421;23;20151;-93
2023/09/05 21:30:13;;;;;;;2.55;1.30;;;;;;;;;;6215132;23;20222;-95
2023/09/05 21:32:41;;;;;;;1.90;1.80;;;;;;;;;;6215523;23;20154;-94
2023/09/05 21:35:09;;;;;;;2.05;1.65;;;;;;;;;;6215301;23;20147;-93
2023/09/05 21:37:37;;;;;;;1.77;1.67;;;;;;;;;;6215227;23;20158;-93
2023/09/05 21:40:09;;;;;;;2.42;1.73;;;;;;;;;;6214954;23;20159;-92
2023/09/05 21:42:37;;;;;;;1.50;1.40;;;;;;;;;;6215427;23;20158;-94
2023/09/05 21:45:06;;;;;;;1.90;1.15;;;;;;;;;;6214481;23;20205;-93
2023/09/05 21:47:34;;;;;;;1.00;1.00;;;;;;;;;;6213678;23;20178;-93
2023/09/05 21:50:02;;;;;;;1.20;1.10;;;;;;;;;;6213445;23;20166;-93
2023/09/05 21:52:30;;;;;;;1.50;1.40;;;;;;;;;;6213673;23;20201;-91
2023/09/05 21:54:57;;;;;;;1.67;1.58;;;;;;;;;;6213399;23;20181;-94
2023/09/05 21:57:26;;;;;;;1.52;1.42;;;;;;;;;;6213426;23;20166;-93
2023/09/05 21:59:54;;;;;;;1.10;1.10;;;;;;;;;;6213507;23;20158;-93
2023/09/05 22:02:21;;;;;;;1.25;1.20;;;;;;;;;;6213651;23;20146;-93
2023/09/05 22:04:49;;;;;;;1.27;1.20;;;;;;;;;;6212905;23;20166;-94
2023/09/05 22:07:17;;;;;;;1.30;1.20;;;;;;;;;;6213562;23;20147;-92
2023/09/05 22:09:44;;;;;;;1.58;1.20;;;;;;;;;;6212998;23;20154;-93
2023/09/05 22:12:12;;;;;;;1.40;1.13;;;;;;;;;;6213597;23;20169;-94
2023/09/05 22:14:42;;;;;;;1.33;1.20;;;;;;;;;;6213389;23;20180;-94
2023/09/05 22:17:10;;;;;;;1.20;1.15;;;;;;;;;;6213463;23;20174;-94
2023/09/05 22:19:37;;;;;;;1.33;1.27;;;;;;;;;;6213162;23;20178;-92
2023/09/05 22:22:06;;;;;;;1.52;1.42;;;;;;;;;;6213271;23;20142;-93
2023/09/05 22:24:35;;;;;;;1.63;1.52;;;;;;;;;;6213179;23;20189;-96
2023/09/05 22:27:03;;;;;;;1.83;1.33;;;;;;;;;;6213341;23;20360;-93
2023/09/05 22:29:32;;;;;;;1.13;1.02;;;;;;;;;;6213174;23;20159;-93
2023/09/05 22:32:01;;;;;;;0.93;0.93;;;;;;;;;;6213278;23;20166;-93
2023/09/05 22:34:28;;;;;;;1.38;1.10;;;;;;;;;;6213236;23;20174;-93
2023/09/05 22:36:56;;;;;;;2.28;1.52;;;;;;;;;;6213261;23;20166;-92
2023/09/05 22:39:24;;;;;;;1.55;1.13;;;;;;;;;;6212982;23;20170;-94
2023/09/05 22:41:52;;;;;;;1.05;1.05;;;;;;;;;;6213251;23;20163;-94
2023/09/05 22:44:24;;;;;;;1.35;1.30;;;;;;;;;;6197233;23;20186;-96
2023/09/05 22:46:53;;;;;;;1.30;1.20;;;;;;;;;;6184936;23;20148;-95
2023/09/05 22:49:22;;;;;;;1.50;1.40;;;;;;;;;;6185196;23;20166;-95
2023/09/05 22:51:50;;;;;;;1.25;1.20;;;;;;;;;;6185341;23;20147;-95
2023/09/05 22:54:19;;;;;;;1.35;1.25;;;;;;;;;;6185233;23;20148;-96
2023/09/05 22:56:49;;;;;;;1.20;1.20;;;;;;;;;;6185143;23;20147;-95
2023/09/05 22:59:17;;;;;;;1.90;0.98;;;;;;;;;;6184609;23;20169;-94
2023/09/05 23:01:49;;;;;;;1.67;0.93;;;;;;;;;;6184991;23;20158;-95
2023/09/05 23:04:17;;;;;;;1.10;1.10;;;;;;;;;;6185172;23;20158;-95
2023/09/05 23:06:47;;;;;;;1.90;1.73;;;;;;;;;;6185236;23;20148;-95
2023/09/05 23:09:16;;;;;;;1.00;1.00;;;;;;;;;;6185037;23;20198;-96
2023/09/05 23:11:44;;;;;;;1.45;1.25;;;;;;;;;;6185014;23;20159;-95
2023/09/05 23:14:13;;;;;;;1.00;1.00;;;;;;;;;;6185045;23;20151;-95
2023/09/05 23:16:41;;;;;;;0.85;0.85;;;;;;;;;;6184713;23;20171;-96
2023/09/05 23:19:10;;;;;;;1.02;1.02;;;;;;;;;;6184851;23;20183;-96
2023/09/05 23:21:41;;;;;;;1.05;0.95;;;;;;;;;;6185066;23;20212;-95
2023/09/05 23:24:10;;;;;;;1.55;1.10;;;;;;;;;;6184972;23;20161;-95
2023/09/05 23:26:39;;;;;;;1.27;1.17;;;;;;;;;;6185110;23;20171;-95
2023/09/05 23:29:07;;;;;;;3.50;1.05;;;;;;;;;;6184780;23;20147;-96
2023/09/05 23:31:36;;;;;;;2.08;1.05;;;;;;;;;;6185000;23;20155;-95
2023/09/05 23:34:04;;;;;;;1.00;1.00;;;;;;;;;;6184399;23;20171;-95
2023/09/05 23:36:33;;;;;;;1.15;1.10;;;;;;;;;;6185113;23;20159;-95
2023/09/05 23:39:01;;;;;;;1.00;0.90;;;;;;;;;;6184654;23;20164;-95
2023/09/05 23:41:32;;;;;;;1.00;1.00;;;;;;;;;;6184941;23;20147;-95
2023/09/05 23:44:04;;;;;;;0.90;0.90;;;;;;;;;;6184882;23;20178;-96
2023/09/05 23:46:35;;;;;;;1.10;1.00;;;;;;;;;;6185036;23;20148;-95
2023/09/05 23:49:03;;;;;;;1.40;1.30;;;;;;;;;;6184642;23;20187;-94
2023/09/05 23:51:32;;;;;;;1.60;1.30;;;;;;;;;;6184912;23;20178;-96
2023/09/05 23:54:02;;;;;;;1.27;1.20;;;;;;;;;;6184754;23;20175;-95
2023/09/05 23:56:31;;;;;;;1.42;1.33;;;;;;;;;;6185009;23;20171;-95
2023/09/05 23:58:59;;;;;;;2.03;1.90;;;;;;;;;;6159406;23;20175;-96
